createdAt,value
2019-05-19T00:00:02.852Z,10.3
2019-05-19T00:15:03.135Z,10.1
2019-05-19T00:30:02.778Z,9.9
2019-05-19T00:45:02.951Z,9.9
2019-05-19T01:00:03.126Z,9.6
2019-05-19T01:15:03.304Z,9.3
2019-05-19T01:30:02.759Z,9.2
2019-05-19T01:45:03.307Z,8.9
2019-05-19T02:00:03.403Z,8.9
2019-05-19T02:15:03.396Z,8.9
2019-05-19T02:30:03.118Z,8.9
2019-05-19T02:45:03.449Z,8.8
2019-05-19T03:00:02.934Z,8.4
2019-05-19T03:15:02.521Z,8.5
2019-05-19T03:30:02.930Z,8.1
2019-05-19T03:45:03.138Z,8.2
2019-05-19T04:00:03.394Z,7.9
2019-05-19T04:15:02.971Z,7.9
2019-05-19T04:30:02.551Z,8.4
2019-05-19T04:45:03.208Z,8.9
2019-05-19T05:00:02.613Z,9.1
2019-05-19T05:15:02.906Z,9.6
2019-05-19T05:30:03.327Z,10.8
2019-05-19T05:45:02.830Z,11.7
2019-05-19T06:00:03.361Z,12.4
2019-05-19T06:15:02.731Z,12.5
2019-05-19T06:30:02.594Z,12.6
2019-05-19T06:45:03.313Z,12.8
2019-05-19T07:00:03.227Z,13.4
2019-05-19T07:15:02.509Z,14.4
2019-05-19T07:30:03.103Z,15.2
2019-05-19T07:45:03.368Z,15.9
2019-05-19T08:00:02.902Z,16.8
2019-05-19T08:15:03.390Z,18.2
2019-05-19T08:30:02.794Z,19.5
2019-05-19T08:45:03.268Z,20.6
2019-05-19T09:00:03.062Z,20.4
2019-05-19T09:15:03.253Z,22.6
2019-05-19T09:30:02.657Z,22.6
2019-05-19T09:45:02.975Z,23.1
2019-05-19T10:00:03.449Z,24.6
2019-05-19T10:15:03.174Z,23.7
2019-05-19T10:30:03.440Z,22.3
2019-05-19T10:45:02.751Z,23.7
2019-05-19T11:00:03.297Z,24.6
2019-05-19T11:15:02.669Z,25.9
2019-05-19T11:30:03.078Z,23.2
2019-05-19T11:45:02.591Z,25.3
2019-05-19T12:00:02.830Z,23.9
2019-05-19T12:15:03.395Z,26.4
2019-05-19T12:30:02.906Z,25.6
2019-05-19T12:45:03.228Z,26.8
2019-05-19T13:00:02.737Z,24.9
2019-05-19T13:15:03.234Z,27
2019-05-19T13:30:02.813Z,27.6
2019-05-19T13:45:03.317Z,26.2
2019-05-19T14:00:02.552Z,26.4
2019-05-19T14:15:04.204Z,27.5
2019-05-19T14:30:03.038Z,26.4
2019-05-19T14:45:03.094Z,25.9
2019-05-19T15:00:03.460Z,24.9
2019-05-19T15:15:02.824Z,24.1
2019-05-19T15:30:12.164Z,23.4
2019-05-19T15:45:02.761Z,24.2
2019-05-19T16:00:04.073Z,23.2
2019-05-19T16:15:02.658Z,22.4
2019-05-19T16:30:03.177Z,22
2019-05-19T16:45:02.520Z,21.7
2019-05-19T17:00:02.823Z,21.9
2019-05-19T17:15:03.369Z,21.4
2019-05-19T17:30:02.736Z,20.9
2019-05-19T17:45:02.949Z,20.6
2019-05-19T18:00:03.327Z,20
2019-05-19T18:15:03.421Z,19.2
2019-05-19T18:30:03.218Z,18.9
2019-05-19T18:45:02.736Z,18.5
2019-05-19T19:00:03.063Z,18.4
2019-05-19T19:15:03.397Z,17.8
2019-05-19T19:30:04.030Z,17.1
2019-05-19T19:45:02.979Z,17.2
2019-05-19T20:00:15.766Z,16.9
2019-05-19T20:15:02.497Z,16.8
2019-05-19T20:30:02.822Z,16.4
2019-05-19T20:45:03.021Z,16.2
2019-05-19T21:00:03.267Z,15.7
2019-05-19T21:15:02.538Z,15.5
2019-05-19T21:30:02.976Z,15.4
2019-05-19T21:45:03.247Z,15.1
2019-05-19T22:00:02.560Z,15.1
2019-05-19T22:15:02.800Z,14.3
2019-05-19T22:30:03.186Z,14.2
2019-05-19T22:45:02.537Z,14.2
2019-05-19T23:00:02.775Z,14.2
2019-05-19T23:15:03.244Z,14
2019-05-19T23:30:02.593Z,13.9
2019-05-19T23:45:02.844Z,13.9
